AYPY/POM METAR and TAF weather

Enter ICAO airport designator
Station Type Date Time Source
AYPY METAR 2018/01/17 06:00 UTC NOAA

AYPY 170600Z 18010KT 9999 SCT030 32/25 Q1003 RMK


Station Type Date Time Source
AYPY Decoded METAR 2018/01/17 06:00 UTC NOAA

Moresby, Papua New Guinea (AYPY) 09-26S 147-13E 49M
Jan 17, 2018 - 01:00 AM EST / 2018.01.17 0600 UTC
Wind: from the S (180 degrees) at 12 MPH (10 KT):0
Visibility: greater than 7 mile(s):0
Sky conditions: partly cloudy
Temperature: 89 F (32 C)
Heat index: 100.6 F (38.1 C):1
Dew Point: 77 F (25 C)
Relative Humidity: 66%
Pressure (altimeter): 29.62 in. Hg (1003 hPa)
ob: AYPY 170600Z 18010KT 9999 SCT030 32/25 Q1003 RMK
cycle: 6

Station Type Date Time Source
AYPY TAF 2018/01/17 00:33 UTC NOAA

TAF TAF AYPY 162210Z 1700/1724 VRB03KT 9999 FEW018 SCT040
FM170200 18008KT 9999 -SHRA SCT018 SCT030 BKN120 INTER 1704/1708 4000 +SHRA BKN008 T 30 32 30 28 Q 1006 1005 1003 1004


Example: see airport list